sensor_id;sensor_type;location;lat;lon;timestamp;pressure;altitude;pressure_sealevel;temperature;humidity
29383;BME280;16365;51.598;7.668;2023-03-12T00:01:30;100597.63;;;9.09;47.17
29383;BME280;16365;51.598;7.668;2023-03-12T00:04:00;100589.84;;;9.11;47.67
29383;BME280;16365;51.598;7.668;2023-03-12T00:06:27;100589.50;;;9.12;47.65
29383;BME280;16365;51.598;7.668;2023-03-12T00:08:53;100584.78;;;9.13;46.87
29383;BME280;16365;51.598;7.668;2023-03-12T00:11:21;100587.25;;;9.14;46.80
29383;BME280;16365;51.598;7.668;2023-03-12T00:13:52;100583.34;;;9.15;47.61
29383;BME280;16365;51.598;7.668;2023-03-12T00:16:19;100584.97;;;9.16;47.59
29383;BME280;16365;51.598;7.668;2023-03-12T00:18:46;100583.81;;;9.17;47.62
29383;BME280;16365;51.598;7.668;2023-03-12T00:21:13;100584.34;;;9.19;47.06
29383;BME280;16365;51.598;7.668;2023-03-12T00:23:40;100590.69;;;9.20;47.11
29383;BME280;16365;51.598;7.668;2023-03-12T00:26:07;100577.66;;;9.20;47.33
29383;BME280;16365;51.598;7.668;2023-03-12T00:28:35;100577.31;;;9.22;47.48
29383;BME280;16365;51.598;7.668;2023-03-12T00:31:24;100569.03;;;9.22;47.13
29383;BME280;16365;51.598;7.668;2023-03-12T00:33:48;100574.25;;;9.23;47.00
29383;BME280;16365;51.598;7.668;2023-03-12T00:36:16;100564.63;;;9.21;46.73
29383;BME280;16365;51.598;7.668;2023-03-12T00:38:42;100563.03;;;9.20;46.96
29383;BME280;16365;51.598;7.668;2023-03-12T00:41:08;100564.97;;;9.19;47.21
29383;BME280;16365;51.598;7.668;2023-03-12T00:43:35;100562.22;;;9.19;47.41
29383;BME280;16365;51.598;7.668;2023-03-12T00:46:02;100562.50;;;9.18;47.27
29383;BME280;16365;51.598;7.668;2023-03-12T00:48:28;100552.59;;;9.17;47.39
29383;BME280;16365;51.598;7.668;2023-03-12T00:50:54;100549.81;;;9.17;46.56
29383;BME280;16365;51.598;7.668;2023-03-12T00:53:21;100542.19;;;9.14;46.99
29383;BME280;16365;51.598;7.668;2023-03-12T00:55:47;100542.50;;;9.12;47.22
29383;BME280;16365;51.598;7.668;2023-03-12T00:58:13;100541.69;;;9.12;47.34
29383;BME280;16365;51.598;7.668;2023-03-12T01:00:39;100538.44;;;9.10;46.77
29383;BME280;16365;51.598;7.668;2023-03-12T01:03:06;100531.59;;;9.07;46.58
29383;BME280;16365;51.598;7.668;2023-03-12T01:05:32;100531.91;;;9.06;46.57
29383;BME280;16365;51.598;7.668;2023-03-12T01:08:03;100529.44;;;9.04;46.78
29383;BME280;16365;51.598;7.668;2023-03-12T01:10:30;100530.94;;;9.01;47.22
29383;BME280;16365;51.598;7.668;2023-03-12T01:12:56;100535.13;;;8.99;46.95
29383;BME280;16365;51.598;7.668;2023-03-12T01:15:22;100546.53;;;8.97;47.11
29383;BME280;16365;51.598;7.668;2023-03-12T01:17:49;100533.34;;;8.94;47.26
29383;BME280;16365;51.598;7.668;2023-03-12T01:20:16;100532.53;;;8.94;46.52
29383;BME280;16365;51.598;7.668;2023-03-12T01:22:42;100529.28;;;8.92;46.51
29383;BME280;16365;51.598;7.668;2023-03-12T01:25:09;100526.84;;;8.90;47.39
29383;BME280;16365;51.598;7.668;2023-03-12T01:27:36;100531.84;;;8.88;46.64
29383;BME280;16365;51.598;7.668;2023-03-12T01:30:03;100521.13;;;8.87;47.00
29383;BME280;16365;51.598;7.668;2023-03-12T01:32:30;100525.84;;;8.86;46.58
29383;BME280;16365;51.598;7.668;2023-03-12T01:34:57;100520.31;;;8.86;46.75
29383;BME280;16365;51.598;7.668;2023-03-12T01:37:23;100520.31;;;8.86;47.30
29383;BME280;16365;51.598;7.668;2023-03-12T01:39:49;100518.38;;;8.87;47.07
29383;BME280;16365;51.598;7.668;2023-03-12T01:42:16;100514.47;;;8.88;46.91
29383;BME280;16365;51.598;7.668;2023-03-12T01:44:53;100513.03;;;8.90;47.46
29383;BME280;16365;51.598;7.668;2023-03-12T01:47:19;100512.50;;;8.88;46.71
29383;BME280;16365;51.598;7.668;2023-03-12T01:49:46;100516.59;;;8.91;46.99
29383;BME280;16365;51.598;7.668;2023-03-12T01:52:14;100514.63;;;8.91;46.69
29383;BME280;16365;51.598;7.668;2023-03-12T01:54:56;100507.16;;;8.92;46.62
29383;BME280;16365;51.598;7.668;2023-03-12T02:00:25;100511.53;;;8.93;46.65
29383;BME280;16365;51.598;7.668;2023-03-12T02:02:53;100500.47;;;8.93;47.48
29383;BME280;16365;51.598;7.668;2023-03-12T02:05:26;100496.09;;;8.92;46.68
29383;BME280;16365;51.598;7.668;2023-03-12T02:07:55;100492.19;;;8.93;47.13
29383;BME280;16365;51.598;7.668;2023-03-12T02:10:22;100487.00;;;8.91;47.28
29383;BME280;16365;51.598;7.668;2023-03-12T02:12:49;100482.59;;;8.90;47.25
29383;BME280;16365;51.598;7.668;2023-03-12T02:15:16;100481.78;;;8.90;46.75
29383;BME280;16365;51.598;7.668;2023-03-12T02:17:42;100480.66;;;8.91;46.62
29383;BME280;16365;51.598;7.668;2023-03-12T02:20:20;100472.66;;;8.89;47.05
29383;BME280;16365;51.598;7.668;2023-03-12T02:22:51;100466.31;;;8.89;46.97
29383;BME280;16365;51.598;7.668;2023-03-12T02:25:25;100477.38;;;8.89;47.08
29383;BME280;16365;51.598;7.668;2023-03-12T02:27:53;100471.03;;;8.88;47.09
29383;BME280;16365;51.598;7.668;2023-03-12T02:30:21;100469.41;;;8.87;46.63
29383;BME280;16365;51.598;7.668;2023-03-12T02:32:47;100468.59;;;8.87;46.77
29383;BME280;16365;51.598;7.668;2023-03-12T02:35:15;100474.94;;;8.87;46.64
29383;BME280;16365;51.598;7.668;2023-03-12T02:37:46;100476.09;;;8.86;47.08
29383;BME280;16365;51.598;7.668;2023-03-12T02:40:14;100476.09;;;8.86;46.66
29383;BME280;16365;51.598;7.668;2023-03-12T02:42:43;100479.16;;;8.85;46.78
29383;BME280;16365;51.598;7.668;2023-03-12T02:45:10;100469.25;;;8.84;46.97
29383;BME280;16365;51.598;7.668;2023-03-12T02:47:37;100466.47;;;8.84;46.77
29383;BME280;16365;51.598;7.668;2023-03-12T02:50:03;100459.31;;;8.83;46.87
29383;BME280;16365;51.598;7.668;2023-03-12T02:52:29;100457.38;;;8.83;47.12
29383;BME280;16365;51.598;7.668;2023-03-12T02:55:00;100462.09;;;8.83;47.13
29383;BME280;16365;51.598;7.668;2023-03-12T02:57:27;100462.91;;;8.83;46.63
29383;BME280;16365;51.598;7.668;2023-03-12T02:59:53;100462.09;;;8.83;46.71
29383;BME280;16365;51.598;7.668;2023-03-12T03:02:20;100451.50;;;8.85;46.76
29383;BME280;16365;51.598;7.668;2023-03-12T03:04:46;100452.66;;;8.84;47.33
29383;BME280;16365;51.598;7.668;2023-03-12T03:07:12;100457.88;;;8.85;46.94
29383;BME280;16365;51.598;7.668;2023-03-12T03:09:40;100455.13;;;8.85;47.28
29383;BME280;16365;51.598;7.668;2023-03-12T03:12:06;100454.44;;;8.88;46.99
29383;BME280;16365;51.598;7.668;2023-03-12T03:14:33;100453.31;;;8.89;47.19
29383;BME280;16365;51.598;7.668;2023-03-12T03:16:59;100455.25;;;8.89;47.37
29383;BME280;16365;51.598;7.668;2023-03-12T03:19:25;100449.44;;;8.90;46.92
29383;BME280;16365;51.598;7.668;2023-03-12T03:21:52;100445.00;;;8.89;46.66
29383;BME280;16365;51.598;7.668;2023-03-12T03:24:18;100446.34;;;8.92;47.10
29383;BME280;16365;51.598;7.668;2023-03-12T03:26:44;100438.38;;;8.90;47.06
29383;BME280;16365;51.598;7.668;2023-03-12T03:29:11;100433.66;;;8.91;46.71
29383;BME280;16365;51.598;7.668;2023-03-12T03:31:37;100420.13;;;8.89;46.96
29383;BME280;16365;51.598;7.668;2023-03-12T03:34:03;100422.91;;;8.89;46.73
29383;BME280;16365;51.598;7.668;2023-03-12T03:36:30;100420.47;;;8.88;47.47
29383;BME280;16365;51.598;7.668;2023-03-12T03:38:57;100426.00;;;8.88;47.06
29383;BME280;16365;51.598;7.668;2023-03-12T03:41:24;100421.94;;;8.85;46.54
29383;BME280;16365;51.598;7.668;2023-03-12T03:43:54;100412.81;;;8.85;46.70
29383;BME280;16365;51.598;7.668;2023-03-12T03:46:20;100415.09;;;8.83;46.70
29383;BME280;16365;51.598;7.668;2023-03-12T03:48:47;100412.34;;;8.83;47.08
29383;BME280;16365;51.598;7.668;2023-03-12T03:51:14;100409.09;;;8.81;46.76
29383;BME280;16365;51.598;7.668;2023-03-12T03:53:42;100411.03;;;8.80;47.01
29383;BME280;16365;51.598;7.668;2023-03-12T03:56:10;100418.50;;;8.80;46.96
29383;BME280;16365;51.598;7.668;2023-03-12T03:58:37;100414.13;;;8.79;47.32
29383;BME280;16365;51.598;7.668;2023-03-12T04:01:03;100410.06;;;8.76;46.58
29383;BME280;16365;51.598;7.668;2023-03-12T04:03:31;100412.81;;;8.76;47.16
29383;BME280;16365;51.598;7.668;2023-03-12T04:05:58;100412.00;;;8.75;47.39
29383;BME280;16365;51.598;7.668;2023-03-12T04:08:25;100405.16;;;8.73;47.38
29383;BME280;16365;51.598;7.668;2023-03-12T04:10:52;100403.53;;;8.72;47.19
29383;BME280;16365;51.598;7.668;2023-03-12T04:13:19;100403.53;;;8.72;46.67
29383;BME280;16365;51.598;7.668;2023-03-12T04:15:46;100398.34;;;8.70;47.19
29383;BME280;16365;51.598;7.668;2023-03-12T04:18:13;100394.44;;;8.71;46.77
29383;BME280;16365;51.598;7.668;2023-03-12T04:20:40;100399.63;;;8.73;47.67
29383;BME280;16365;51.598;7.668;2023-03-12T04:23:06;100393.78;;;8.74;46.86
29383;BME280;16365;51.598;7.668;2023-03-12T04:25:33;100386.28;;;8.75;47.35
29383;BME280;16365;51.598;7.668;2023-03-12T04:27:59;100395.91;;;8.78;46.99
29383;BME280;16365;51.598;7.668;2023-03-12T04:30:26;100394.47;;;8.80;46.79
29383;BME280;16365;51.598;7.668;2023-03-12T04:32:53;100385.84;;;8.82;46.94
29383;BME280;16365;51.598;7.668;2023-03-12T04:35:20;100380.78;;;8.84;47.07
29383;BME280;16365;51.598;7.668;2023-03-12T04:37:46;100375.75;;;8.86;47.29
29383;BME280;16365;51.598;7.668;2023-03-12T04:40:13;100378.19;;;8.87;46.87
29383;BME280;16365;51.598;7.668;2023-03-12T04:42:40;100371.22;;;8.90;47.62
29383;BME280;16365;51.598;7.668;2023-03-12T04:45:07;100369.25;;;8.90;47.40
29383;BME280;16365;51.598;7.668;2023-03-12T04:47:33;100364.19;;;8.92;47.47
29383;BME280;16365;51.598;7.668;2023-03-12T04:50:00;100367.44;;;8.94;47.75
29383;BME280;16365;51.598;7.668;2023-03-12T04:52:27;100373.47;;;8.96;47.38
29383;BME280;16365;51.598;7.668;2023-03-12T04:54:53;100362.09;;;8.98;47.71
29383;BME280;16365;51.598;7.668;2023-03-12T04:57:19;100357.38;;;8.98;46.97
29383;BME280;16365;51.598;7.668;2023-03-12T04:59:46;100359.81;;;9.00;46.87
29383;BME280;16365;51.598;7.668;2023-03-12T05:02:12;100355.91;;;9.01;46.95
29383;BME280;16365;51.598;7.668;2023-03-12T05:04:39;100344.50;;;9.02;47.84
29383;BME280;16365;51.598;7.668;2023-03-12T05:07:05;100341.41;;;9.04;47.07
29383;BME280;16365;51.598;7.668;2023-03-12T05:09:32;100342.56;;;9.03;47.48
29383;BME280;16365;51.598;7.668;2023-03-12T05:11:58;100342.25;;;9.05;47.00
29383;BME280;16365;51.598;7.668;2023-03-12T05:14:28;100340.28;;;9.05;47.62
29383;BME280;16365;51.598;7.668;2023-03-12T05:16:54;100342.72;;;9.07;47.25
29383;BME280;16365;51.598;7.668;2023-03-12T05:19:20;100337.19;;;9.07;47.89
29383;BME280;16365;51.598;7.668;2023-03-12T05:21:47;100325.78;;;9.08;47.59
29383;BME280;16365;51.598;7.668;2023-03-12T05:24:14;100328.25;;;9.10;47.16
29383;BME280;16365;51.598;7.668;2023-03-12T05:26:41;100323.19;;;9.12;47.07
29383;BME280;16365;51.598;7.668;2023-03-12T05:29:07;100318.97;;;9.14;47.65
29383;BME280;16365;51.598;7.668;2023-03-12T05:31:34;100323.53;;;9.19;47.33
29383;BME280;16365;51.598;7.668;2023-03-12T05:34:02;100315.38;;;9.22;47.49
29383;BME280;16365;51.598;7.668;2023-03-12T05:36:29;100307.69;;;9.28;47.77
29383;BME280;16365;51.598;7.668;2023-03-12T05:38:55;100305.59;;;9.34;47.55
29383;BME280;16365;51.598;7.668;2023-03-12T05:41:23;100305.72;;;9.37;48.58
29383;BME280;16365;51.598;7.668;2023-03-12T05:43:51;100301.16;;;9.41;48.17
29383;BME280;16365;51.598;7.668;2023-03-12T05:46:17;100293.03;;;9.45;48.34
29383;BME280;16365;51.598;7.668;2023-03-12T05:48:44;100300.31;;;9.49;48.00
29383;BME280;16365;51.598;7.668;2023-03-12T05:51:11;100287.78;;;9.52;48.53
29383;BME280;16365;51.598;7.668;2023-03-12T05:53:38;100284.34;;;9.55;48.70
29383;BME280;16365;51.598;7.668;2023-03-12T05:56:05;100290.03;;;9.59;47.99
29383;BME280;16365;51.598;7.668;2023-03-12T05:58:32;100289.69;;;9.60;47.76
29383;BME280;16365;51.598;7.668;2023-03-12T06:00:59;100294.59;;;9.63;47.74
29383;BME280;16365;51.598;7.668;2023-03-12T06:03:26;100291.13;;;9.66;47.87
29383;BME280;16365;51.598;7.668;2023-03-12T06:05:52;100290.47;;;9.69;47.38
29383;BME280;16365;51.598;7.668;2023-03-12T06:08:22;100292.59;;;9.72;47.77
29383;BME280;16365;51.598;7.668;2023-03-12T06:10:49;100281.66;;;9.76;47.85
29383;BME280;16365;51.598;7.668;2023-03-12T06:13:17;100275.47;;;9.79;47.63
29383;BME280;16365;51.598;7.668;2023-03-12T06:15:43;100266.50;;;9.82;47.64
29383;BME280;16365;51.598;7.668;2023-03-12T06:18:09;100261.06;;;9.86;47.64
29383;BME280;16365;51.598;7.668;2023-03-12T06:20:36;100255.69;;;9.89;47.38
29383;BME280;16365;51.598;7.668;2023-03-12T06:23:02;100249.16;;;9.94;47.83
29383;BME280;16365;51.598;7.668;2023-03-12T06:25:28;100246.84;;;9.96;47.90
29383;BME280;16365;51.598;7.668;2023-03-12T06:27:54;100247.00;;;9.99;48.00
29383;BME280;16365;51.598;7.668;2023-03-12T06:30:21;100245.53;;;10.02;47.40
29383;BME280;16365;51.598;7.668;2023-03-12T06:32:47;100250.72;;;10.03;47.99
29383;BME280;16365;51.598;7.668;2023-03-12T06:35:14;100252.03;;;10.06;47.98
29383;BME280;16365;51.598;7.668;2023-03-12T06:37:40;100245.31;;;10.07;47.68
29383;BME280;16365;51.598;7.668;2023-03-12T06:40:07;100243.50;;;10.11;47.46
29383;BME280;16365;51.598;7.668;2023-03-12T06:42:35;100243.97;;;10.13;47.66
29383;BME280;16365;51.598;7.668;2023-03-12T06:45:02;100250.81;;;10.16;47.86
29383;BME280;16365;51.598;7.668;2023-03-12T06:47:29;100252.91;;;10.19;47.54
29383;BME280;16365;51.598;7.668;2023-03-12T06:49:55;100256.63;;;10.23;47.88
29383;BME280;16365;51.598;7.668;2023-03-12T06:52:21;100244.09;;;10.25;47.59
29383;BME280;16365;51.598;7.668;2023-03-12T06:54:47;100243.41;;;10.28;47.65
29383;BME280;16365;51.598;7.668;2023-03-12T06:57:14;100238.34;;;10.31;47.61
29383;BME280;16365;51.598;7.668;2023-03-12T06:59:41;100238.00;;;10.32;47.27
29383;BME280;16365;51.598;7.668;2023-03-12T07:02:09;100247.28;;;10.36;47.01
29383;BME280;16365;51.598;7.668;2023-03-12T07:04:35;100249.34;;;10.39;47.36
29383;BME280;16365;51.598;7.668;2023-03-12T07:07:02;100255.03;;;10.43;47.91
29383;BME280;16365;51.598;7.668;2023-03-12T07:09:29;100240.84;;;10.44;47.60
29383;BME280;16365;51.598;7.668;2023-03-12T07:11:56;100234.97;;;10.46;47.47
29383;BME280;16365;51.598;7.668;2023-03-12T07:14:22;100239.00;;;10.48;47.42
29383;BME280;16365;51.598;7.668;2023-03-12T07:16:49;100242.25;;;10.50;47.66
29383;BME280;16365;51.598;7.668;2023-03-12T07:19:15;100242.72;;;10.52;47.54
29383;BME280;16365;51.598;7.668;2023-03-12T07:21:44;100231.78;;;10.56;47.38
29383;BME280;16365;51.598;7.668;2023-03-12T07:24:10;100241.03;;;10.60;47.52
29383;BME280;16365;51.598;7.668;2023-03-12T07:26:36;100243.13;;;10.63;47.63
29383;BME280;16365;51.598;7.668;2023-03-12T07:29:03;100237.72;;;10.67;47.11
29383;BME280;16365;51.598;7.668;2023-03-12T07:31:30;100241.44;;;10.71;47.30
29383;BME280;16365;51.598;7.668;2023-03-12T07:33:56;100228.50;;;10.75;47.51
29383;BME280;16365;51.598;7.668;2023-03-12T07:36:23;100228.97;;;10.77;47.62
29383;BME280;16365;51.598;7.668;2023-03-12T07:38:49;100229.44;;;10.79;47.68
29383;BME280;16365;51.598;7.668;2023-03-12T07:41:16;100231.06;;;10.80;47.76
29383;BME280;16365;51.598;7.668;2023-03-12T07:43:42;100223.56;;;10.80;47.61
29383;BME280;16365;51.598;7.668;2023-03-12T07:46:09;100212.47;;;10.80;47.76
29383;BME280;16365;51.598;7.668;2023-03-12T07:48:35;100213.28;;;10.81;47.51
29383;BME280;16365;51.598;7.668;2023-03-12T07:51:02;100211.31;;;10.81;47.58
29383;BME280;16365;51.598;7.668;2023-03-12T07:53:28;100209.69;;;10.80;47.62
29383;BME280;16365;51.598;7.668;2023-03-12T07:55:54;100207.72;;;10.81;47.66
29383;BME280;16365;51.598;7.668;2023-03-12T07:58:21;100216.41;;;10.79;47.59
29383;BME280;16365;51.598;7.668;2023-03-12T08:00:47;100206.78;;;10.77;47.45
29383;BME280;16365;51.598;7.668;2023-03-12T08:03:14;100205.53;;;10.74;47.72
29383;BME280;16365;51.598;7.668;2023-03-12T08:05:42;100202.59;;;10.71;47.62
29383;BME280;16365;51.598;7.668;2023-03-12T08:08:12;100195.44;;;10.70;47.92
29383;BME280;16365;51.598;7.668;2023-03-12T08:10:39;100198.09;;;10.66;47.76
29383;BME280;16365;51.598;7.668;2023-03-12T08:13:05;100192.09;;;10.64;47.69
29383;BME280;16365;51.598;7.668;2023-03-12T08:15:31;100197.94;;;10.63;47.71
29383;BME280;16365;51.598;7.668;2023-03-12T08:17:58;100194.72;;;10.61;47.90
29383;BME280;16365;51.598;7.668;2023-03-12T08:20:25;100199.47;;;10.60;47.78
29383;BME280;16365;51.598;7.668;2023-03-12T08:22:52;100198.66;;;10.60;47.88
29383;BME280;16365;51.598;7.668;2023-03-12T08:25:18;100203.03;;;10.61;47.96
29383;BME280;16365;51.598;7.668;2023-03-12T08:27:46;100200.25;;;10.61;47.79
29383;BME280;16365;51.598;7.668;2023-03-12T08:30:12;100198.75;;;10.63;47.81
29383;BME280;16365;51.598;7.668;2023-03-12T08:32:39;100190.94;;;10.65;48.10
29383;BME280;16365;51.598;7.668;2023-03-12T08:35:05;100185.03;;;10.67;47.97
29383;BME280;16365;51.598;7.668;2023-03-12T08:37:32;100186.31;;;10.69;48.09
29383;BME280;16365;51.598;7.668;2023-03-12T08:39:58;100182.03;;;10.72;48.15
29383;BME280;16365;51.598;7.668;2023-03-12T08:42:25;100178.59;;;10.75;48.15
29383;BME280;16365;51.598;7.668;2023-03-12T08:44:51;100172.69;;;10.76;48.26
29383;BME280;16365;51.598;7.668;2023-03-12T08:47:18;100180.34;;;10.79;48.55
29383;BME280;16365;51.598;7.668;2023-03-12T08:49:44;100181.16;;;10.80;48.53
29383;BME280;16365;51.598;7.668;2023-03-12T08:52:11;100177.72;;;10.83;48.74
29383;BME280;16365;51.598;7.668;2023-03-12T08:54:37;100168.22;;;10.84;48.49
29383;BME280;16365;51.598;7.668;2023-03-12T08:57:05;100173.06;;;10.87;48.49
29383;BME280;16365;51.598;7.668;2023-03-12T08:59:32;100165.22;;;10.89;48.32
29383;BME280;16365;51.598;7.668;2023-03-12T09:01:58;100170.06;;;10.92;49.05
29383;BME280;16365;51.598;7.668;2023-03-12T09:04:24;100166.63;;;10.95;48.63
29383;BME280;16365;51.598;7.668;2023-03-12T09:06:51;100158.09;;;11.00;49.12
29383;BME280;16365;51.598;7.668;2023-03-12T09:09:17;100168.16;;;11.05;48.79
29383;BME280;16365;51.598;7.668;2023-03-12T09:11:43;100164.69;;;11.08;49.06
29383;BME280;16365;51.598;7.668;2023-03-12T09:14:10;100163.19;;;11.11;48.66
29383;BME280;16365;51.598;7.668;2023-03-12T09:16:56;100154.97;;;11.14;48.60
29383;BME280;16365;51.598;7.668;2023-03-12T09:19:23;100151.84;;;11.16;48.85
29383;BME280;16365;51.598;7.668;2023-03-12T09:21:49;100154.75;;;11.19;48.82
29383;BME280;16365;51.598;7.668;2023-03-12T09:24:16;100150.50;;;11.22;48.84
29383;BME280;16365;51.598;7.668;2023-03-12T09:26:42;100148.16;;;11.24;48.53
29383;BME280;16365;51.598;7.668;2023-03-12T09:29:09;100149.41;;;11.26;48.97
29383;BME280;16365;51.598;7.668;2023-03-12T09:31:35;100145.16;;;11.29;48.93
29383;BME280;16365;51.598;7.668;2023-03-12T09:34:02;100151.16;;;11.31;48.93
29383;BME280;16365;51.598;7.668;2023-03-12T09:36:28;100141.34;;;11.33;49.05
29383;BME280;16365;51.598;7.668;2023-03-12T09:38:55;100141.78;;;11.36;48.93
29383;BME280;16365;51.598;7.668;2023-03-12T09:41:22;100143.88;;;11.39;49.00
29383;BME280;16365;51.598;7.668;2023-03-12T09:43:56;100134.88;;;11.42;49.11
29383;BME280;16365;51.598;7.668;2023-03-12T09:46:34;100130.22;;;11.46;49.13
29383;BME280;16365;51.598;7.668;2023-03-12T09:49:03;100134.41;;;11.52;49.16
29383;BME280;16365;51.598;7.668;2023-03-12T09:51:32;100140.53;;;11.57;49.41
29383;BME280;16365;51.598;7.668;2023-03-12T09:54:02;100124.78;;;11.62;48.99
29383;BME280;16365;51.598;7.668;2023-03-12T09:56:29;100135.28;;;11.68;49.39
29383;BME280;16365;51.598;7.668;2023-03-12T09:58:57;100137.50;;;11.75;49.46
29383;BME280;16365;51.598;7.668;2023-03-12T10:01:41;100133.66;;;11.79;48.82
29383;BME280;16365;51.598;7.668;2023-03-12T10:04:29;100133.47;;;11.85;49.39
29383;BME280;16365;51.598;7.668;2023-03-12T10:07:00;100143.16;;;11.91;49.24
29383;BME280;16365;51.598;7.668;2023-03-12T10:09:47;100150.44;;;11.95;48.99
29383;BME280;16365;51.598;7.668;2023-03-12T10:17:34;100153.09;;;12.04;49.17
29383;BME280;16365;51.598;7.668;2023-03-12T10:20:24;100151.56;;;12.06;48.53
29383;BME280;16365;51.598;7.668;2023-03-12T10:22:57;100152.84;;;12.09;48.81
29383;BME280;16365;51.598;7.668;2023-03-12T10:27:52;100155.72;;;12.13;48.88
29383;BME280;16365;51.598;7.668;2023-03-12T10:30:20;100154.22;;;12.15;48.87
29383;BME280;16365;51.598;7.668;2023-03-12T10:32:58;100167.28;;;12.15;49.02
29383;BME280;16365;51.598;7.668;2023-03-12T10:35:26;100164.59;;;12.18;49.47
29383;BME280;16365;51.598;7.668;2023-03-12T10:37:56;100161.50;;;12.20;49.12
29383;BME280;16365;51.598;7.668;2023-03-12T10:40:24;100162.28;;;12.20;49.38
29383;BME280;16365;51.598;7.668;2023-03-12T10:42:51;100149.22;;;12.21;48.88
29383;BME280;16365;51.598;7.668;2023-03-12T10:45:20;100147.22;;;12.21;48.99
29383;BME280;16365;51.598;7.668;2023-03-12T10:47:52;100156.03;;;12.23;49.68
29383;BME280;16365;51.598;7.668;2023-03-12T10:50:23;100143.75;;;12.24;49.49
29383;BME280;16365;51.598;7.668;2023-03-12T10:52:51;100151.38;;;12.27;49.82
29383;BME280;16365;51.598;7.668;2023-03-12T10:55:25;100150.31;;;12.32;49.83
29383;BME280;16365;51.598;7.668;2023-03-12T10:57:56;100150.41;;;12.35;50.00
29383;BME280;16365;51.598;7.668;2023-03-12T11:00:26;100139.41;;;12.39;49.57
29383;BME280;16365;51.598;7.668;2023-03-12T11:07:52;100149.22;;;12.49;49.75
29383;BME280;16365;51.598;7.668;2023-03-12T11:10:22;100146.53;;;12.52;49.52
29383;BME280;16365;51.598;7.668;2023-03-12T11:12:59;100147.34;;;12.53;50.49
29383;BME280;16365;51.598;7.668;2023-03-12T11:15:36;100141.06;;;12.56;49.97
29383;BME280;16365;51.598;7.668;2023-03-12T11:20:51;100160.25;;;12.61;50.29
29383;BME280;16365;51.598;7.668;2023-03-12T11:23:23;100150.41;;;12.64;49.90
29383;BME280;16365;51.598;7.668;2023-03-12T11:25:51;100157.22;;;12.66;50.47
29383;BME280;16365;51.598;7.668;2023-03-12T11:28:20;100145.03;;;12.71;50.43
29383;BME280;16365;51.598;7.668;2023-03-12T11:30:47;100149.53;;;12.75;50.20
29383;BME280;16365;51.598;7.668;2023-03-12T11:33:15;100152.41;;;12.79;49.93
29383;BME280;16365;51.598;7.668;2023-03-12T11:35:44;100156.09;;;12.83;49.97
29383;BME280;16365;51.598;7.668;2023-03-12T11:38:17;100159.78;;;12.87;50.10
29383;BME280;16365;51.598;7.668;2023-03-12T11:43:23;100152.44;;;12.95;50.23
29383;BME280;16365;51.598;7.668;2023-03-12T11:46:16;100145.44;;;13.01;50.39
29383;BME280;16365;51.598;7.668;2023-03-12T11:48:55;100149.94;;;13.05;50.68
29383;BME280;16365;51.598;7.668;2023-03-12T11:51:40;100151.19;;;13.08;50.44
29383;BME280;16365;51.598;7.668;2023-03-12T11:56:45;100156.22;;;13.18;50.78
29383;BME280;16365;51.598;7.668;2023-03-12T11:59:21;100152.72;;;13.21;50.19
29383;BME280;16365;51.598;7.668;2023-03-12T12:04:31;100144.50;;;13.25;50.49
29383;BME280;16365;51.598;7.668;2023-03-12T12:12:07;100141.16;;;13.35;50.79
29383;BME280;16365;51.598;7.668;2023-03-12T12:14:43;100126.50;;;13.38;51.09
29383;BME280;16365;51.598;7.668;2023-03-12T12:19:45;100133.06;;;13.46;50.92
29383;BME280;16365;51.598;7.668;2023-03-12T12:22:23;100129.19;;;13.50;50.54
29383;BME280;16365;51.598;7.668;2023-03-12T12:25:11;100134.47;;;13.55;50.75
29383;BME280;16365;51.598;7.668;2023-03-12T12:30:51;100134.72;;;13.66;50.53
29383;BME280;16365;51.598;7.668;2023-03-12T12:35:57;100128.59;;;13.76;50.66
29383;BME280;16365;51.598;7.668;2023-03-12T12:38:32;100132.69;;;13.82;51.03
29383;BME280;16365;51.598;7.668;2023-03-12T12:41:06;100134.03;;;13.88;50.82
29383;BME280;16365;51.598;7.668;2023-03-12T12:43:38;100132.56;;;13.95;50.96
29383;BME280;16365;51.598;7.668;2023-03-12T12:46:13;100123.94;;;14.00;51.20
29383;BME280;16365;51.598;7.668;2023-03-12T12:48:51;100131.28;;;14.08;50.88
29383;BME280;16365;51.598;7.668;2023-03-12T12:51:18;100127.00;;;14.14;51.54
29383;BME280;16365;51.598;7.668;2023-03-12T12:59:06;100109.47;;;14.33;50.91
29383;BME280;16365;51.598;7.668;2023-03-12T13:01:34;100112.78;;;14.38;51.08
29383;BME280;16365;51.598;7.668;2023-03-12T13:04:08;100099.31;;;14.44;51.10
29383;BME280;16365;51.598;7.668;2023-03-12T13:09:21;100100.00;;;14.57;50.94
29383;BME280;16365;51.598;7.668;2023-03-12T13:11:47;100086.94;;;14.61;51.12
29383;BME280;16365;51.598;7.668;2023-03-12T13:14:18;100095.00;;;14.66;51.03
29383;BME280;16365;51.598;7.668;2023-03-12T13:16:46;100110.25;;;14.72;51.51
29383;BME280;16365;51.598;7.668;2023-03-12T13:24:21;100101.75;;;14.88;51.25
29383;BME280;16365;51.598;7.668;2023-03-12T13:26:51;100089.13;;;14.94;51.31
29383;BME280;16365;51.598;7.668;2023-03-12T13:31:54;100083.34;;;15.06;51.55
29383;BME280;16365;51.598;7.668;2023-03-12T13:36:49;100084.31;;;15.17;51.51
29383;BME280;16365;51.598;7.668;2023-03-12T13:41:48;100080.13;;;15.31;51.48
29383;BME280;16365;51.598;7.668;2023-03-12T13:49:34;100067.25;;;15.49;51.34
29383;BME280;16365;51.598;7.668;2023-03-12T13:54:32;100057.47;;;15.62;51.61
29383;BME280;16365;51.598;7.668;2023-03-12T13:57:03;100053.97;;;15.69;51.45
29383;BME280;16365;51.598;7.668;2023-03-12T13:59:35;100057.69;;;15.77;51.74
29383;BME280;16365;51.598;7.668;2023-03-12T14:02:12;100059.81;;;15.87;51.57
29383;BME280;16365;51.598;7.668;2023-03-12T14:04:41;100051.50;;;15.94;51.40
29383;BME280;16365;51.598;7.668;2023-03-12T14:09:40;100050.88;;;16.08;51.56
29383;BME280;16365;51.598;7.668;2023-03-12T14:12:15;100044.97;;;16.16;51.28